Terminal Aerodrome Forecast
Issued by NWS

Home | Current Version | Previous Version | Graphics & Text | Print | Product List | Glossary On
Versions: 1 2 3 4 5 6 7 8 9 10 11 12 13 14 15 16 17
000
FTUS43 KMPX 312300 RRA
TAFAXN
TAF
KAXN 312340Z 0100/0124 28013G20KT P6SM SCT040 BKN120
     FM010200 28007KT P6SM SCT015 BKN150
     FM010800 30005KT 5SM BR BKN015
     FM011300 30010KT P6SM SCT020
     FM011800 30013KT P6SM BKN050=

USA.gov is the U.S. government's official web portal to all federal, state and local government web resources and services.